WEATHER DATA

YESTERDAY
Time Temp. Dewp. Hum. Bar. 1h Prec. 24h Prec.
00:03 -2.5 -7.2 67 1017.3 0.0000 0.0000
00:12 -2.6 -7.3 67 1017.5 0.0000 0.0000
00:23 -2.7 -7.4 67 1017.5 0.0000 0.0000
00:33 -2.8 -7.5 67 1017.6 0.0000 0.0000
00:41 -2.8 -7.5 67 1017.7 0.0000 0.0000
00:51 -2.9 -7.6 67 1017.7 0.0000 0.0000
01:01 -3 -7.7 67 1017.7 0.0000 0.0000
01:11 -3 -7.7 67 1017.7 0.0000 0.0000
01:21 -3 -7.5 68 1017.5 0.0000 0.0000
01:32 -3.1 -7.6 68 1017.6 0.0000 0.0000
01:41 -3.1 -7.8 67 1017.5 0.0000 0.0000
01:51 -3.2 -7.9 67 1017.6 0.0000 0.0000
02:02 -3.3 -8 67 1017.6 0.0000 0.0000
02:12 -3.3 -7.8 68 1017.6 0.0000 0.0000
02:22 -3.4 -7.9 68 1017.5 0.0000 0.0000
02:32 -3.5 -8 68 1017.4 0.0000 0.0000
02:42 -3.5 -8 68 1017.4 0.0000 0.0000
02:51 -3.6 -8.1 68 1017.5 0.0000 0.0000
03:02 -3.7 -8.2 68 1017.5 0.0000 0.0000
03:13 -3.8 -8.3 68 1017.7 0.0000 0.0000
03:18 -3.8 -8.1 69 1017.8 0.0000 0.0000
03:33 -3.9 -8.2 69 1017.5 0.0000 0.0000
03:43 -3.9 -8.2 69 1017.7 0.0000 0.0000
03:52 -3.9 -8.2 69 1017.7 0.0000 0.0000
04:03 -4 -8.3 69 1018 0.0000 0.0000
04:13 -4 -8.3 69 1018 0.0000 0.0000
04:23 -4 -8.3 69 1017.8 0.0000 0.0000
04:33 -4.1 -8.4 69 1018 0.0000 0.0000
04:43 -4.1 -8.4 69 1018.1 0.0000 0.0000
04:52 -4.1 -8.4 69 1018.5 0.0000 0.0000
05:01 -4.1 -8.2 70 1018.6 0.0000 0.0000
05:13 -4.1 -8.4 69 1018.5 0.0000 0.0000
05:17 -4.2 -8.3 70 1018.6 0.0000 0.0000
05:44 -4.2 -8.5 69 1018.8 0.0000 0.0000
06:04 -4.2 -8.5 69 1018.9 0.0000 0.0000
06:12 -4.2 -8.5 69 1018.8 0.0000 0.0000
06:24 -4.2 -8.5 69 1019 0.0000 0.0000
06:28 -4.3 -8.6 69 1019.2 0.0000 0.0000
06:44 -4.3 -8.6 69 1019.2 0.0000 0.0000
06:54 -4.3 -8.6 69 1019.1 0.0000 0.0000
07:04 -4.4 -8.7 69 1019.3 0.0000 0.0000
07:15 -4.4 -8.7 69 1019.4 0.0000 0.0000
07:24 -4.4 -8.5 70 1019.5 0.0000 0.0000
07:34 -4.4 -8.7 69 1019.7 0.0000 0.0000
07:45 -4.4 -8.5 70 1019.7 0.0000 0.0000
07:55 -4.4 -8.5 70 1019.9 0.0000 0.0000
08:04 -4.4 -8.7 69 1019.9 0.0000 0.0000
08:15 -4.3 -8.6 69 1019.8 0.0000 0.0000
08:25 -4.2 -8.5 69 1020 0.0000 0.0000
08:35 -4.1 -8.4 69 1019.8 0.0000 0.0000
08:45 -4 -8.3 69 1019.8 0.0000 0.0000
08:56 -3.8 -8.3 68 1019.9 0.0000 0.0000
09:05 -3.7 -8.2 68 1019.7 0.0000 0.0000
09:15 -3.5 -8 68 1019.7 0.0000 0.0000
09:25 -3.3 -8 67 1019.9 0.0000 0.0000
09:36 -3.1 -7.9 66 1020 0.0000 0.0000
09:46 -2.8 -7.8 65 1020.2 0.0000 0.0000
09:56 -2.6 -7.8 64 1020.2 0.0000 0.0000
10:05 -2.3 -7.3 65 1020.3 0.0000 0.0000
10:16 -2 -7.4 63 1020.2 0.0000 0.0000
10:26 -1.7 -7.1 63 1020.4 0.0000 0.0000
10:36 -1.4 -7 62 1020.6 0.0000 0.0000
10:47 -1.2 -7 61 1020.5 0.0000 0.0000
10:56 -0.8 -6.4 62 1020.6 0.0000 0.0000
11:06 -0.5 -6.7 59 1020.5 0.0000 0.0000
11:17 -0.1 -6.4 59 1020.7 0.0000 0.0000
11:23 0.1 -6.2 59 1020.6 0.0000 0.0000
11:33 0.4 -5.7 60 1020.7 0.0000 0.0000
11:43 0.6 -5.4 61 1020.8 0.0000 0.0000
11:53 0.9 -5.3 60 1020.9 0.0000 0.0000
12:04 1.1 -4.9 61 1020.8 0.0000 0.0000
12:14 1.2 -5.1 60 1020.6 0.0000 0.0000
12:23 1.4 -4.7 61 1020.5 0.0000 0.0000
12:33 1.5 -4.8 60 1020.3 0.0000 0.0000
12:44 1.6 -4.3 62 1020.4 0.0000 0.0000
12:54 1.7 -4.4 61 1020.6 0.0000 0.0000
13:04 1.8 -4.2 62 1020.4 0.0000 0.0000
13:14 1.9 -4.1 62 1020.4 0.0000 0.0000
13:24 2 -4 62 1020.3 0.0000 0.0000
13:34 2.1 -3.9 62 1020.3 0.0000 0.0000
13:44 2.3 -3.7 62 1020.3 0.0000 0.0000
13:55 2.3 -3.6 63 1020.3 0.0000 0.0000
14:05 2.4 -3.5 63 1020.1 0.0000 0.0000
14:15 2.5 -3.4 63 1020.2 0.0000 0.0000
14:25 2.4 -3.5 63 1020.3 0.0000 0.0000
14:35 2.3 -3.6 63 1020.2 0.0000 0.0000
14:45 2.4 -3.5 63 1020.3 0.0000 0.0000
14:55 2.3 -3.7 62 1020.2 0.0000 0.0000
15:06 2.2 -3.8 62 1020.4 0.0000 0.0000
15:15 2 -4 62 1020.1 0.0000 0.0000
15:25 2.1 -3.7 63 1020.1 0.0000 0.0000
15:35 2 -4 62 1020.3 0.0000 0.0000
15:46 1.8 -4.5 60 1020.1 0.0000 0.0000
15:56 1.6 -4.3 62 1020.2 0.0000 0.0000
16:06 1.6 -4.1 63 1020.3 0.0000 0.0000
16:16 1.3 -4.4 63 1020.4 0.0000 0.0000
16:26 1.1 -4.4 64 1020.5 0.0000 0.0000
16:36 0.9 -4.5 64 1020.5 0.0000 0.0000
16:46 0.9 -4.4 65 1020.4 0.0000 0.0000
16:57 0.7 -4.5 65 1020.4 0.0000 0.0000
17:07 0.6 -4.6 65 1020.5 0.0000 0.0000
17:16 0.5 -4.9 64 1020.6 0.0000 0.0000
17:27 0.4 -5 64 1020.6 0.0000 0.0000
17:37 0.3 -5.1 64 1020.6 0.0000 0.0000
17:47 0.2 -5.3 63 1020.7 0.0000 0.0000
17:57 0.2 -5.1 64 1020.8 0.0000 0.0000
18:07 0.1 -5.4 63 1020.8 0.0000 0.0000
18:17 0 -5.5 63 1020.9 0.0000 0.0000
18:27 0 -5.7 62 1020.9 0.0000 0.0000
18:37 0 -5.7 62 1021 0.0000 0.0000
18:46 -0.1 -5.8 62 1021.1 0.0000 0.0000
18:56 -0.2 -5.9 62 1021.2 0.0000 0.0000
19:06 -0.2 -6.1 61 1021.3 0.0000 0.0000
19:17 -0.3 -6.4 60 1021.2 0.0000 0.0000
19:36 -0.4 -6.8 58 1021.3 0.0000 0.0000
19:47 -0.4 -6.6 59 1021.4 0.0000 0.0000
19:57 -0.5 -6.5 60 1021.4 0.0000 0.0000
20:07 -0.6 -6.6 60 1021.6 0.0000 0.0000
20:17 -0.7 -6.7 60 1021.6 0.0000 0.0000
20:28 -0.7 -6.7 60 1021.6 0.0000 0.0000
20:37 -0.8 -6.6 61 1021.7 0.0000 0.0000
20:47 -0.9 -6.7 61 1021.8 0.0000 0.0000
20:58 -1 -6.8 61 1021.8 0.0000 0.0000
21:08 -1.1 -6.9 61 1021.8 0.0000 0.0000
21:18 -1.1 -6.9 61 1021.8 0.0000 0.0000
21:38 -1.3 -6.9 62 1022 0.0000 0.0000
21:48 -1.4 -7 62 1022 0.0000 0.0000
21:58 -1.5 -7.1 62 1022.1 0.0000 0.0000
22:08 -1.5 -7.1 62 1022.2 0.0000 0.0000
22:18 -1.6 -7.2 62 1022.1 0.0000 0.0000
22:28 -1.7 -7.3 62 1022.3 0.0000 0.0000
22:38 -1.8 -7.2 63 1022.3 0.0000 0.0000
22:59 -2 -7.4 63 1022.4 0.0000 0.0000
23:08 -2 -7.4 63 1022.4 0.0000 0.0000
23:19 -2.1 -7.7 62 1022.5 0.0000 0.0000
23:39 -2.2 -7.6 63 1022.6 0.0000 0.0000
23:49 -2.3 -7.7 63 1022.7 0.0000 0.0000

DAY STATISTICS

2018-02-24
TEMPERATURE
AVERAGE
-1.4
HIGH
2.5
14:15
LOW
-4.4
07:04
PRESSURE
AVERAGE
1019.9
HIGH
1022.7
23:49
LOW
1017.3
00:03
DEWPOINT
AVERAGE
-6.7
HIGH
-3.4
14:15
LOW
-8.7
07:04
HUMIDITY
AVERAGE
65
HIGH
70
05:01
LOW
58
19:36
PRECIPITATION
RAIN HOUR
0.0
RAIN DAY
0.0
TEMPERATURE (°C)
LOW
-4.4
HIGH
2.5
AVERAGE
-1.4
PRESSURE (hpa)
LOW
1017.3
HIGH
1022.7
AVERAGE
1019.9
DEVICE